Time;durP1;ratioP1;P1;durP2;ratioP2;P2;SDS_P1;SDS_P2;PMS_P1;PMS_P2;Temp;Humidity;BMP_temperature;BMP_pressure;BME280_temperature;BME280_humidity;BME280_pressure;Samples;Min_cycle;Max_cycle;Signal;HPM_P1;HPM_P2
2023/05/11 00:01:35;;;;;;;77.50;37.50;;;;;;;6.49;83.16;100122.14;105975;1253;63087;-69
2023/05/11 00:04:02;;;;;;;94.40;42.90;;;;;;;6.43;83.04;100121.40;105828;1253;73980;-67
2023/05/11 00:06:29;;;;;;;118.60;55.30;;;;;;;6.47;82.08;100121.83;106072;1253;69634;-68
2023/05/11 00:08:56;;;;;;;158.10;64.60;;;;;;;6.49;81.19;100125.44;105846;1253;73631;-70
2023/05/11 00:11:23;;;;;;;162.30;72.50;;;;;;;6.51;81.42;100127.60;106035;1253;62239;-76
2023/05/11 00:13:50;;;;;;;135.40;64.10;;;;;;;6.38;83.19;100127.13;105913;1253;62490;-74
2023/05/11 00:16:16;;;;;;;131.50;59.00;;;;;;;6.43;83.70;100130.55;105835;1253;75381;-70
2023/05/11 00:18:43;;;;;;;153.00;65.50;;;;;;;6.48;82.40;100131.80;106101;1253;69769;-72
2023/05/11 00:21:10;;;;;;;122.60;55.80;;;;;;;6.47;81.23;100127.98;105777;1257;73587;-72
2023/05/11 00:23:37;;;;;;;151.00;66.60;;;;;;;6.35;81.45;100125.09;105786;1253;62131;-72
2023/05/11 00:26:04;;;;;;;164.00;64.70;;;;;;;6.35;80.84;100128.73;105923;1253;62214;-72
2023/05/11 00:28:31;;;;;;;159.10;65.10;;;;;;;6.31;82.14;100127.35;105976;1253;75572;-71
2023/05/11 00:30:58;;;;;;;126.50;58.10;;;;;;;6.39;82.56;100127.73;105820;1253;69318;-70
2023/05/11 00:33:25;;;;;;;117.40;50.20;;;;;;;6.31;83.24;100130.68;105210;1253;1002937;-72
2023/05/11 00:35:52;;;;;;;133.70;60.00;;;;;;;6.37;82.22;100129.39;105855;1253;62076;-71
2023/05/11 00:38:19;;;;;;;129.70;59.30;;;;;;;6.36;82.34;100131.27;105776;1254;62075;-71
2023/05/11 00:40:47;;;;;;;136.10;60.10;;;;;;;6.27;82.43;100131.64;106023;1256;74823;-71
2023/05/11 00:43:15;;;;;;;123.20;55.90;;;;;;;6.27;84.13;100130.66;106098;1253;68986;-72
2023/05/11 00:45:43;;;;;;;104.90;51.20;;;;;;;6.33;84.01;100134.86;105972;1253;73496;-72
2023/05/11 00:48:10;;;;;;;139.60;58.90;;;;;;;6.31;84.59;100133.60;105836;1253;62133;-71
2023/05/11 00:50:37;;;;;;;113.50;51.90;;;;;;;6.23;87.49;100132.15;105603;1253;62524;-72
2023/05/11 00:53:03;;;;;;;105.20;49.90;;;;;;;6.31;87.78;100131.17;106132;1253;76115;-73
2023/05/11 00:55:31;;;;;;;89.90;43.30;;;;;;;6.30;87.23;100129.33;105865;1256;68388;-72
2023/05/11 00:57:57;;;;;;;94.00;42.80;;;;;;;6.39;86.49;100130.64;105984;1253;71455;-71
2023/05/11 01:00:24;;;;;;;96.00;44.60;;;;;;;6.43;85.60;100135.96;105844;1253;62095;-71
2023/05/11 01:02:51;;;;;;;91.20;43.40;;;;;;;6.46;84.09;100134.73;105766;1258;62152;-73
2023/05/11 01:05:19;;;;;;;116.70;49.60;;;;;;;6.38;83.42;100136.94;105966;1256;74220;-72
2023/05/11 01:07:52;;;;;;;113.20;53.20;;;;;;;6.33;83.60;100137.98;106110;1253;68230;-72
2023/05/11 01:10:36;;;;;;;138.90;60.00;;;;;;;6.25;83.84;100139.81;105929;1254;73285;-71
2023/05/11 01:13:30;;;;;;;112.30;55.30;;;;;;;6.23;83.06;100139.90;106074;1255;64213;-72
2023/05/11 01:15:58;;;;;;;102.20;44.90;;;;;;;6.26;83.05;100135.91;106057;1255;61925;-73
2023/05/11 01:18:39;;;;;;;112.30;53.70;;;;;;;6.27;82.09;100136.40;106819;1253;75139;-72
2023/05/11 01:21:09;;;;;;;92.50;42.40;;;;;;;6.25;82.57;100133.87;106177;1258;68489;-73
2023/05/11 01:23:40;;;;;;;97.00;46.50;;;;;;;6.21;83.80;100138.20;105554;1259;72964;-77
2023/05/11 01:26:16;;;;;;;111.90;51.00;;;;;;;6.14;83.72;100139.84;105837;1253;62042;-77
2023/05/11 01:29:02;;;;;;;126.20;57.40;;;;;;;6.05;84.25;100140.86;105781;1253;62149;-75
2023/05/11 01:31:33;;;;;;;126.90;55.40;;;;;;;6.01;84.18;100140.55;105777;1253;74478;-73
2023/05/11 01:34:05;;;;;;;139.80;58.70;;;;;;;5.95;84.22;100141.05;105573;1255;68761;-72
2023/05/11 01:36:33;;;;;;;144.40;59.80;;;;;;;5.81;85.58;100142.08;105864;1254;73792;-71
2023/05/11 01:39:02;;;;;;;137.40;61.30;;;;;;;5.64;85.73;100141.95;105767;1254;62137;-68
2023/05/11 01:41:30;;;;;;;109.80;52.30;;;;;;;5.56;87.86;100143.55;105808;1253;63173;-73
2023/05/11 01:43:59;;;;;;;105.60;46.40;;;;;;;5.65;88.35;100139.89;105710;1258;75263;-69
2023/05/11 01:46:27;;;;;;;109.80;46.10;;;;;;;5.79;87.71;100137.08;105795;1258;67144;-73
2023/05/11 01:48:55;;;;;;;106.40;46.10;;;;;;;5.76;87.84;100141.59;105879;1254;73258;-77
2023/05/11 01:51:28;;;;;;;104.70;49.20;;;;;;;5.89;86.93;100143.05;105663;1254;62369;-69
2023/05/11 01:53:55;;;;;;;109.50;45.30;;;;;;;5.91;85.51;100142.11;105779;1253;62064;-71
2023/05/11 01:56:22;;;;;;;90.30;42.90;;;;;;;5.84;86.72;100140.47;105805;1258;76165;-71
2023/05/11 01:58:49;;;;;;;102.40;47.70;;;;;;;5.88;86.25;100143.59;105741;1253;68916;-71
2023/05/11 02:01:17;;;;;;;102.80;41.50;;;;;;;3.63;99.03;100141.66;105679;1253;73499;-70
2023/05/11 02:03:44;;;;;;;90.40;40.60;;;;;;;3.86;100.00;100140.95;105762;1253;62270;-71
2023/05/11 02:06:11;;;;;;;93.00;38.60;;;;;;;4.26;100.00;100142.50;105624;1257;62071;-71
2023/05/11 02:08:38;;;;;;;85.80;38.60;;;;;;;4.64;100.00;100141.95;105785;1259;76204;-71
2023/05/11 02:11:05;;;;;;;82.40;33.60;;;;;;;4.59;100.00;100142.35;105803;1253;67830;-72
2023/05/11 02:13:33;;;;;;;69.70;32.70;;;;;;;4.61;100.00;100143.23;105543;1259;72166;-72
2023/05/11 02:16:00;;;;;;;58.70;32.40;;;;;;;4.62;100.00;100146.15;105671;1261;62131;-71
2023/05/11 02:18:27;;;;;;;79.50;35.90;;;;;;;4.74;100.00;100148.55;105797;1254;62112;-69
2023/05/11 02:20:58;;;;;;;93.40;36.10;;;;;;;4.84;100.00;100153.45;105747;1257;74688;-71
2023/05/11 02:23:26;;;;;;;82.70;38.20;;;;;;;4.86;100.00;100152.55;105762;1253;68422;-69
2023/05/11 02:25:53;;;;;;;82.80;40.40;;;;;;;4.93;100.00;100151.06;105796;1256;73626;-70
2023/05/11 02:28:20;;;;;;;83.00;35.00;;;;;;;4.99;100.00;100149.71;105629;1253;62100;-68
2023/05/11 02:30:49;;;;;;;89.90;36.70;;;;;;;5.16;100.00;100152.96;105818;1258;62589;-70
2023/05/11 02:33:21;;;;;;;93.70;39.50;;;;;;;5.16;100.00;100153.83;105836;1258;74476;-77
2023/05/11 02:35:48;;;;;;;71.40;33.40;;;;;;;4.89;100.00;100157.06;105786;1253;67584;-72
2023/05/11 02:38:15;;;;;;;62.30;34.10;;;;;;;4.90;100.00;100153.75;105705;1254;73593;-70
2023/05/11 02:40:47;;;;;;;72.20;36.10;;;;;;;4.85;100.00;100157.06;105813;1254;62220;-71
2023/05/11 02:43:21;;;;;;;73.20;37.40;;;;;;;4.82;100.00;100158.85;105794;1254;62024;-71
2023/05/11 02:45:53;;;;;;;77.20;38.50;;;;;;;4.92;100.00;100157.73;105900;1256;75353;-71
2023/05/11 02:48:25;;;;;;;56.10;32.30;;;;;;;5.03;100.00;100161.14;105698;1253;68636;-71
2023/05/11 02:50:54;;;;;;;60.40;30.40;;;;;;;5.01;100.00;100165.23;105742;1253;72635;-72
2023/05/11 02:53:23;;;;;;;77.90;34.40;;;;;;;5.04;100.00;100163.08;105824;1254;62550;-71
2023/05/11 02:55:50;;;;;;;65.10;34.20;;;;;;;5.07;100.00;100166.72;105678;1259;62101;-68
2023/05/11 02:58:17;;;;;;;68.00;32.40;;;;;;;5.13;100.00;100167.09;105701;1259;74837;-72
2023/05/11 03:00:46;;;;;;;75.50;34.90;;;;;;;5.23;100.00;100169.06;106122;1256;68716;-72
2023/05/11 03:03:13;;;;;;;77.10;36.40;;;;;;;5.44;99.90;100168.09;105696;1256;73322;-73
2023/05/11 03:05:40;;;;;;;88.10;36.50;;;;;;;5.47;99.15;100169.06;105607;1261;62021;-70
2023/05/11 03:08:08;;;;;;;85.80;35.90;;;;;;;5.54;97.81;100174.33;105752;1255;63263;-71
2023/05/11 03:10:36;;;;;;;99.90;39.60;;;;;;;5.73;95.83;100181.60;105625;1260;75544;-74
2023/05/11 03:13:02;;;;;;;92.50;43.00;;;;;;;5.71;95.52;100180.20;105714;1253;69158;-73
2023/05/11 03:15:30;;;;;;;79.50;40.70;;;;;;;5.64;96.60;100181.94;105643;1253;73011;-70
2023/05/11 03:17:57;;;;;;;82.70;38.70;;;;;;;5.64;97.39;100186.23;105599;1254;62129;-70
2023/05/11 03:20:24;;;;;;;88.00;42.50;;;;;;;5.83;97.52;100185.98;105612;1254;62082;-71
2023/05/11 03:22:51;;;;;;;80.50;37.80;;;;;;;6.17;96.38;100186.84;106071;1256;76551;-70
2023/05/11 03:25:18;;;;;;;83.50;38.00;;;;;;;6.47;94.64;100189.41;106079;1254;69942;-73
2023/05/11 03:27:45;;;;;;;76.50;37.60;;;;;;;6.71;92.53;100190.70;105807;1258;72735;-70
2023/05/11 03:30:13;;;;;;;71.20;38.20;;;;;;;6.89;90.81;100192.98;105565;1254;62218;-70
2023/05/11 03:32:43;;;;;;;84.90;37.80;;;;;;;7.04;90.14;100198.91;105629;1259;62023;-72
2023/05/11 03:35:10;;;;;;;85.60;41.50;;;;;;;7.04;91.08;100199.39;105778;1259;74278;-70
2023/05/11 03:37:37;;;;;;;80.80;38.40;;;;;;;7.31;90.62;100203.16;105618;1254;68831;-72
2023/05/11 03:40:05;;;;;;;80.40;40.30;;;;;;;7.61;88.69;100204.41;105795;1254;72117;-70
2023/05/11 03:42:38;;;;;;;93.70;41.80;;;;;;;7.93;86.59;100210.26;105865;1254;62142;-71
2023/05/11 03:45:06;;;;;;;74.40;38.60;;;;;;;8.18;85.87;100207.57;105634;1254;63026;-71
2023/05/11 03:47:33;;;;;;;69.80;32.60;;;;;;;8.46;84.26;100210.17;105877;1259;76216;-71
2023/05/11 03:50:00;;;;;;;74.00;30.20;;;;;;;8.62;82.26;100213.70;105813;1259;67677;-71
2023/05/11 03:52:28;;;;;;;72.10;31.50;;;;;;;8.84;80.78;100214.13;105626;1259;73172;-72
2023/05/11 03:54:55;;;;;;;72.70;35.10;;;;;;;9.07;79.26;100213.02;105723;1262;62140;-70
2023/05/11 03:57:24;;;;;;;71.00;35.30;;;;;;;9.36;77.85;100219.23;105776;1259;61989;-69
2023/05/11 03:59:51;;;;;;;54.60;26.70;;;;;;;9.61;76.10;100221.95;106085;1257;75546;-71
2023/05/11 04:02:18;;;;;;;59.20;28.00;;;;;;;9.74;74.25;100224.13;105973;1256;67675;-72
2023/05/11 04:04:45;;;;;;;57.10;28.40;;;;;;;9.79;72.22;100226.23;105943;1256;72097;-72
2023/05/11 04:07:12;;;;;;;59.80;27.40;;;;;;;9.80;70.66;100227.83;105197;1256;1003042;-72
2023/05/11 04:09:39;;;;;;;58.60;27.40;;;;;;;9.99;70.12;100224.35;106003;1253;62050;-72
2023/05/11 04:12:06;;;;;;;57.40;26.70;;;;;;;10.17;69.61;100230.97;105942;1257;76428;-72
2023/05/11 04:14:33;;;;;;;62.50;27.80;;;;;;;10.38;67.63;100236.40;106044;1253;68873;-74
2023/05/11 04:17:00;;;;;;;59.10;24.70;;;;;;;10.51;66.12;100239.52;106638;1259;71507;-73
2023/05/11 04:19:28;;;;;;;56.00;27.60;;;;;;;10.67;65.07;100241.89;108535;1252;61893;-72
2023/05/11 04:21:54;;;;;;;57.40;25.50;;;;;;;10.90;65.81;100243.46;106265;1257;62041;-74
2023/05/11 04:24:21;;;;;;;63.30;25.50;;;;;;;10.99;63.40;100248.10;105960;1259;76278;-73
2023/05/11 04:26:48;;;;;;;58.90;22.00;;;;;;;11.08;61.49;100246.01;105980;1257;67930;-70
2023/05/11 04:29:14;;;;;;;33.60;13.20;;;;;;;11.34;59.03;100248.23;105843;1253;73761;-74
2023/05/11 04:31:41;;;;;;;30.10;11.60;;;;;;;11.46;55.06;100250.08;106026;1257;62161;-70
2023/05/11 04:34:08;;;;;;;21.20;10.80;;;;;;;11.64;54.46;100253.66;106014;1256;61899;-70
2023/05/11 04:36:36;;;;;;;46.40;13.90;;;;;;;11.87;53.56;100255.40;105879;1253;75464;-71
2023/05/11 04:39:03;;;;;;;21.40;10.80;;;;;;;12.03;51.34;100258.61;105758;1258;68902;-69
2023/05/11 04:41:32;;;;;;;19.70;11.10;;;;;;;12.37;49.25;100256.80;105776;1253;72621;-75
2023/05/11 04:44:00;;;;;;;27.40;10.50;;;;;;;12.60;47.04;100262.27;105864;1258;62241;-75
2023/05/11 04:46:28;;;;;;;24.90;10.90;;;;;;;12.56;47.27;100262.13;105780;1254;62014;-76
2023/05/11 04:48:55;;;;;;;17.60;10.40;;;;;;;12.70;47.45;100266.22;105984;1253;76415;-72
2023/05/11 04:51:22;;;;;;;17.30;11.70;;;;;;;13.02;46.20;100263.49;105896;1264;69706;-73
2023/05/11 04:53:49;;;;;;;22.50;13.00;;;;;;;13.06;45.11;100266.81;105885;1256;72188;-69
2023/05/11 04:56:20;;;;;;;25.70;12.30;;;;;;;13.21;45.10;100270.59;106077;1256;62024;-72
2023/05/11 04:58:48;;;;;;;25.20;11.60;;;;;;;13.28;43.83;100269.38;106092;1254;62139;-72
2023/05/11 05:01:15;;;;;;;23.40;11.50;;;;;;;13.41;43.50;100278.42;106044;1256;75386;-72
2023/05/11 05:03:42;;;;;;;23.20;11.00;;;;;;;13.75;42.88;100273.92;105759;1260;68616;-72
2023/05/11 05:06:08;;;;;;;18.40;10.50;;;;;;;14.15;42.39;100278.51;105902;1254;72572;-70
2023/05/11 05:08:36;;;;;;;16.30;10.40;;;;;;;14.35;41.26;100281.77;105936;1253;63042;-72
2023/05/11 05:11:03;;;;;;;25.70;11.70;;;;;;;14.50;40.70;100281.64;105753;1259;62111;-73
2023/05/11 05:13:30;;;;;;;24.10;10.30;;;;;;;14.62;40.40;100281.20;105910;1256;75947;-72
2023/05/11 05:15:57;;;;;;;22.40;12.60;;;;;;;14.83;39.75;100286.55;105661;1260;68682;-72
2023/05/11 05:18:24;;;;;;;28.30;12.10;;;;;;;15.00;39.33;100284.00;105712;1260;72008;-71
2023/05/11 05:20:51;;;;;;;24.20;10.20;;;;;;;15.23;39.02;100284.98;105709;1259;62136;-70
2023/05/11 05:23:18;;;;;;;22.20;10.10;;;;;;;15.46;39.06;100286.33;105670;1253;63026;-72
2023/05/11 05:25:45;;;;;;;20.60;8.60;;;;;;;15.67;38.86;100290.64;105954;1255;73541;-70
2023/05/11 05:28:12;;;;;;;14.90;7.80;;;;;;;12.08;43.57;100276.10;106055;1256;68860;-72
2023/05/11 05:30:40;;;;;;;10.30;7.90;;;;;;;11.12;46.17;100272.73;106094;1254;71677;-71
2023/05/11 05:33:06;;;;;;;14.40;6.80;;;;;;;10.96;47.36;100271.91;105666;1257;62105;-73
2023/05/11 05:35:34;;;;;;;17.80;7.10;;;;;;;11.14;47.26;100267.85;106084;1257;62200;-72
2023/05/11 05:38:01;;;;;;;11.20;6.60;;;;;;;11.36;47.32;100268.92;106100;1257;76013;-71
2023/05/11 05:40:28;;;;;;;12.10;6.80;;;;;;;14.06;42.53;100280.22;105876;1257;69607;-71
2023/05/11 05:42:55;;;;;;;13.40;7.00;;;;;;;15.26;40.24;100284.77;105924;1253;73741;-72
2023/05/11 05:45:23;;;;;;;8.20;6.50;;;;;;;16.13;38.65;100293.19;105993;1255;62034;-72
2023/05/11 05:47:51;;;;;;;16.50;7.50;;;;;;;17.10;37.68;100289.34;106039;1257;61907;-74
2023/05/11 05:50:18;;;;;;;8.30;6.00;;;;;;;18.08;35.98;100292.88;105927;1259;76342;-74
2023/05/11 05:52:47;;;;;;;8.80;5.40;;;;;;;18.52;33.70;100296.70;105995;1259;68320;-74
2023/05/11 05:55:14;;;;;;;23.50;6.90;;;;;;;18.68;34.07;100306.30;105980;1259;71590;-73
2023/05/11 05:57:42;;;;;;;10.40;6.00;;;;;;;18.87;33.64;100304.27;106049;1256;62108;-73
2023/05/11 06:00:10;;;;;;;11.90;7.10;;;;;;;18.81;33.92;100302.36;106074;1257;62021;-74
2023/05/11 06:02:41;;;;;;;12.40;7.60;;;;;;;19.00;34.27;100303.77;106084;1258;75656;-72
2023/05/11 06:05:10;;;;;;;18.20;7.50;;;;;;;19.29;33.88;100304.73;106079;1259;67302;-73
2023/05/11 06:07:38;;;;;;;22.40;8.00;;;;;;;19.06;33.33;100304.67;105927;1265;72437;-72
2023/05/11 06:10:05;;;;;;;12.20;7.40;;;;;;;15.32;38.67;100293.41;105998;1257;62143;-73
2023/05/11 06:12:33;;;;;;;16.60;7.10;;;;;;;14.69;39.98;100290.78;105716;1258;62037;-75
2023/05/11 06:15:00;;;;;;;20.00;8.50;;;;;;;15.47;40.25;100292.05;105988;1256;76259;-73
2023/05/11 06:17:28;;;;;;;13.10;8.90;;;;;;;16.83;37.78;100294.61;106030;1260;68684;-75
2023/05/11 06:19:55;;;;;;;12.40;6.80;;;;;;;15.80;39.57;100289.08;106175;1257;73510;-75
2023/05/11 06:22:23;;;;;;;13.10;6.90;;;;;;;15.35;39.50;100288.31;106205;1254;62155;-75
2023/05/11 06:24:50;;;;;;;11.00;6.20;;;;;;;15.41;39.61;100292.77;106227;1254;62517;-72
2023/05/11 06:27:18;;;;;;;11.80;6.10;;;;;;;15.36;39.09;100288.36;106102;1258;75466;-75
2023/05/11 06:29:45;;;;;;;7.20;5.10;;;;;;;14.86;39.78;100288.22;106055;1254;69477;-75
2023/05/11 06:32:15;;;;;;;9.50;5.00;;;;;;;15.03;38.84;100292.53;106192;1257;73147;-73
2023/05/11 06:34:46;;;;;;;10.10;4.70;;;;;;;14.52;37.96;100291.23;105963;1263;62232;-75
2023/05/11 06:37:19;;;;;;;10.70;5.50;;;;;;;14.08;39.46;100293.19;106236;1255;61980;-75
2023/05/11 06:39:48;;;;;;;6.80;5.50;;;;;;;14.19;39.99;100289.37;106235;1257;76039;-74
2023/05/11 06:42:15;;;;;;;8.50;5.00;;;;;;;14.73;38.69;100289.92;106238;1254;69645;-76
2023/05/11 06:44:42;;;;;;;6.80;4.80;;;;;;;14.96;37.82;100294.46;105999;1254;72519;-76
2023/05/11 06:47:10;;;;;;;5.30;4.20;;;;;;;15.43;38.01;100293.14;106193;1253;62257;-75
2023/05/11 06:49:37;;;;;;;4.70;3.90;;;;;;;17.64;34.52;100304.44;105907;1257;62149;-75
2023/05/11 06:52:03;;;;;;;6.60;4.30;;;;;;;18.81;32.89;100308.37;106227;1257;74596;-76
2023/05/11 06:54:30;;;;;;;9.50;4.60;;;;;;;19.93;30.66;100316.15;106228;1255;68614;-71
2023/05/11 06:56:57;;;;;;;7.80;4.80;;;;;;;20.75;29.33;100320.88;106177;1257;73273;-74
2023/05/11 06:59:25;;;;;;;6.70;4.50;;;;;;;21.58;29.32;100327.87;106182;1259;62153;-74
2023/05/11 07:01:52;;;;;;;;;;;;;;;21.26;27.28;100328.29;106193;1255;62029;-74
2023/05/11 07:04:19;;;;;;;10.00;3.90;;;;;;;17.68;31.26;100310.86;106235;1258;75073;-75
2023/05/11 07:06:46;;;;;;;7.10;4.00;;;;;;;17.41;31.45;100309.43;106178;1256;69207;-77
2023/05/11 07:09:12;;;;;;;11.10;3.70;;;;;;;17.41;30.47;100305.36;106266;1259;73512;-76
2023/05/11 07:11:40;;;;;;;10.20;4.30;;;;;;;17.63;31.28;100304.83;106202;1254;62094;-76
2023/05/11 07:14:07;;;;;;;4.70;3.50;;;;;;;17.38;30.09;100310.86;106402;1255;62130;-76
2023/05/11 07:16:37;;;;;;;3.50;2.90;;;;;;;17.35;28.82;100307.78;106142;1254;74291;-76
2023/05/11 07:19:05;;;;;;;4.00;2.80;;;;;;;17.58;26.68;100314.80;106035;1253;68818;-77
2023/05/11 07:21:33;;;;;;;3.60;2.60;;;;;;;17.45;25.93;100319.51;108016;1256;73529;-76
2023/05/11 07:24:00;;;;;;;6.00;3.00;;;;;;;17.54;25.48;100314.92;108264;1254;62028;-75
2023/05/11 07:26:26;;;;;;;9.00;3.50;;;;;;;17.08;25.51;100311.77;106233;1266;63213;-79
2023/05/11 07:28:53;;;;;;;8.80;4.50;;;;;;;17.00;26.60;100311.73;105985;1258;75357;-77
2023/05/11 07:31:21;;;;;;;9.70;4.40;;;;;;;17.31;27.04;100309.04;106065;1258;69586;-76
2023/05/11 07:33:48;;;;;;;4.40;3.50;;;;;;;17.95;25.30;100311.52;105878;1259;72242;-76
2023/05/11 07:36:14;;;;;;;7.20;3.40;;;;;;;17.99;23.86;100310.34;105934;1258;62063;-76
2023/05/11 07:38:41;;;;;;;7.30;2.60;;;;;;;17.46;24.16;100308.69;105931;1253;61950;-76
2023/05/11 07:41:08;;;;;;;3.60;2.70;;;;;;;16.89;24.29;100309.77;105869;1256;74660;-79
2023/05/11 07:43:38;;;;;;;3.40;3.00;;;;;;;16.31;24.35;100313.17;105898;1256;67984;-76
2023/05/11 07:46:06;;;;;;;3.60;3.10;;;;;;;16.08;25.64;100311.73;106050;1255;72639;-78
2023/05/11 07:48:32;;;;;;;4.10;3.50;;;;;;;16.11;26.00;100310.21;106252;1255;62146;-74
2023/05/11 07:51:00;;;;;;;5.00;3.00;;;;;;;15.98;25.70;100306.10;106147;1256;62041;-75
2023/05/11 07:53:27;;;;;;;6.20;3.30;;;;;;;15.80;26.04;100306.95;106269;1257;76506;-76
2023/05/11 07:55:54;;;;;;;4.10;3.10;;;;;;;15.72;26.29;100303.60;106213;1256;68023;-76
2023/05/11 07:58:22;;;;;;;6.50;3.70;;;;;;;15.94;27.05;100301.01;106228;1256;73715;-77
2023/05/11 08:00:48;;;;;;;4.50;3.30;;;;;;;16.08;26.67;100296.45;106116;1257;63258;-77
2023/05/11 08:03:15;;;;;;;4.80;3.30;;;;;;;16.07;26.41;100302.52;106064;1259;63036;-76
2023/05/11 08:05:42;;;;;;;6.00;3.30;;;;;;;16.13;26.36;100296.40;106042;1257;73889;-78
2023/05/11 08:08:09;;;;;;;6.50;4.00;;;;;;;16.30;26.60;100298.33;106243;1255;69813;-78
2023/05/11 08:10:36;;;;;;;7.20;3.70;;;;;;;16.36;27.10;100301.18;106153;1257;72120;-76
2023/05/11 08:13:03;;;;;;;3.70;3.40;;;;;;;16.28;26.56;100299.20;106191;1256;62136;-78
2023/05/11 08:15:29;;;;;;;5.30;3.40;;;;;;;15.91;26.97;100295.48;106328;1257;62018;-75
2023/05/11 08:17:56;;;;;;;12.00;3.90;;;;;;;15.82;27.56;100296.18;106208;1254;74247;-76
2023/05/11 08:20:23;;;;;;;5.40;3.40;;;;;;;16.00;27.51;100296.95;106234;1256;67704;-76
2023/05/11 08:22:50;;;;;;;4.70;3.40;;;;;;;16.18;26.83;100299.00;106237;1256;72729;-77
2023/05/11 08:25:17;;;;;;;8.90;3.40;;;;;;;16.28;26.76;100298.48;106177;1257;62057;-77
2023/05/11 08:27:44;;;;;;;5.10;3.20;;;;;;;16.02;27.21;100294.46;106015;1257;62654;-76
2023/05/11 08:30:12;;;;;;;12.30;4.00;;;;;;;15.91;28.14;100289.69;105979;1257;76531;-75
2023/05/11 08:32:39;;;;;;;9.80;3.60;;;;;;;15.92;28.56;100294.30;106020;1255;68559;-73
2023/05/11 08:35:24;;;;;;;5.20;3.60;;;;;;;15.98;27.89;100296.52;105984;1254;72594;-77
2023/05/11 08:37:51;;;;;;;7.00;3.90;;;;;;;16.06;27.14;100298.20;106031;1261;62225;-76
2023/05/11 08:40:18;;;;;;;6.90;3.40;;;;;;;16.81;27.05;100300.48;105952;1258;62044;-76
2023/05/11 08:42:45;;;;;;;6.50;4.10;;;;;;;16.42;27.34;100301.50;106029;1258;76502;-76
2023/05/11 08:45:12;;;;;;;46.60;6.80;;;;;;;16.51;27.18;100301.69;105976;1255;69777;-76
2023/05/11 08:47:39;;;;;;;6.20;3.70;;;;;;;16.45;27.56;100299.43;106152;1254;72586;-74
2023/05/11 08:50:06;;;;;;;3.70;3.00;;;;;;;16.53;26.29;100301.96;106214;1256;62143;-76
2023/05/11 08:52:33;;;;;;;7.30;3.30;;;;;;;16.46;26.47;100301.66;106215;1252;62079;-76
2023/05/11 08:55:00;;;;;;;3.50;3.00;;;;;;;16.46;26.50;100303.11;106136;1265;76599;-77
2023/05/11 08:57:28;;;;;;;3.70;3.40;;;;;;;16.57;25.96;100303.48;106151;1254;69133;-77
2023/05/11 08:59:55;;;;;;;6.00;3.50;;;;;;;16.61;26.21;100298.05;106115;1254;73629;-76
2023/05/11 09:02:21;;;;;;;4.50;3.40;;;;;;;16.47;26.05;100297.11;106107;1257;62111;-75
2023/05/11 09:04:48;;;;;;;7.00;3.40;;;;;;;16.43;25.82;100301.45;105827;1259;62187;-76
2023/05/11 09:07:18;;;;;;;4.10;3.10;;;;;;;16.42;25.73;100300.86;105888;1254;76003;-77
2023/05/11 09:09:46;;;;;;;8.80;3.40;;;;;;;16.42;26.02;100301.89;106246;1255;68085;-76
2023/05/11 09:12:13;;;;;;;6.70;4.10;;;;;;;17.10;25.13;100299.09;105731;1262;72384;-77
2023/05/11 09:14:40;;;;;;;10.60;4.20;;;;;;;18.23;24.94;100297.60;106091;1255;62107;-77
2023/05/11 09:17:07;;;;;;;6.90;3.20;;;;;;;17.62;24.52;100292.75;106199;1257;63082;-77
2023/05/11 09:19:34;;;;;;;8.80;3.80;;;;;;;17.60;24.92;100289.15;105994;1258;75657;-75
2023/05/11 09:22:00;;;;;;;5.10;3.20;;;;;;;17.18;25.46;100288.07;105970;1261;68037;-75
2023/05/11 09:24:27;;;;;;;13.70;4.20;;;;;;;17.88;25.07;100291.95;106278;1254;70499;-76
2023/05/11 09:27:14;;;;;;;8.00;4.00;;;;;;;18.60;24.16;100290.16;106308;1253;62043;-76
2023/05/11 09:29:47;;;;;;;10.10;3.50;;;;;;;16.95;25.31;100286.08;106024;1254;62072;-75
2023/05/11 09:32:18;;;;;;;5.70;3.60;;;;;;;16.70;26.11;100283.60;106192;1257;74151;-75
2023/05/11 09:34:45;;;;;;;8.10;3.50;;;;;;;16.44;26.10;100288.16;106043;1254;69794;-76
2023/05/11 09:37:16;;;;;;;5.80;3.10;;;;;;;16.54;26.33;100283.96;106256;1257;72819;-76
2023/05/11 09:39:43;;;;;;;3.30;2.90;;;;;;;16.65;26.18;100284.91;106276;1256;62063;-77
2023/05/11 09:42:20;;;;;;;5.00;2.90;;;;;;;16.44;26.28;100281.72;105819;1252;62143;-76
2023/05/11 09:44:47;;;;;;;;;;;;;;;16.70;26.58;100275.79;106187;1254;75552;-75
2023/05/11 09:47:15;;;;;;;3.20;2.90;;;;;;;16.69;25.95;100276.11;106218;1253;67947;-74
2023/05/11 09:49:43;;;;;;;7.00;3.60;;;;;;;16.82;25.63;100272.29;106231;1257;73675;-75
2023/05/11 09:52:14;;;;;;;8.80;4.00;;;;;;;17.36;26.06;100269.08;106049;1260;62130;-75
2023/05/11 09:54:42;;;;;;;9.50;4.40;;;;;;;17.68;25.31;100264.34;106048;1257;62141;-76
2023/05/11 09:57:21;;;;;;;7.70;3.70;;;;;;;17.78;24.96;100260.42;106016;1254;73617;-76
2023/05/11 09:59:48;;;;;;;5.40;3.10;;;;;;;17.72;25.28;100259.54;105915;1255;68706;-75
2023/05/11 10:02:22;;;;;;;6.10;3.70;;;;;;;17.77;25.75;100261.89;106066;1254;73590;-75
2023/05/11 10:04:50;;;;;;;5.10;3.60;;;;;;;17.72;25.72;100260.30;106189;1254;61944;-76
2023/05/11 10:07:33;;;;;;;6.80;3.70;;;;;;;17.71;25.45;100260.84;106228;1253;62018;-75
2023/05/11 10:10:00;;;;;;;10.70;3.50;;;;;;;17.62;25.00;100261.67;106202;1254;76031;-75
2023/05/11 10:12:28;;;;;;;15.00;3.50;;;;;;;17.48;24.88;100260.42;106260;1256;68139;-76
2023/05/11 10:14:58;;;;;;;3.50;2.70;;;;;;;17.39;24.45;100261.91;106313;1254;73129;-76
2023/05/11 10:17:25;;;;;;;3.80;3.00;;;;;;;17.26;24.27;100258.02;106295;1254;62152;-75
2023/05/11 10:19:53;;;;;;;3.80;3.00;;;;;;;17.15;24.54;100259.34;106094;1257;61913;-76
2023/05/11 10:22:20;;;;;;;6.90;3.10;;;;;;;17.03;24.80;100259.30;106165;1254;73586;-77
2023/05/11 10:24:47;;;;;;;4.90;3.30;;;;;;;16.95;25.11;100252.67;105858;1253;66554;-75
2023/05/11 10:27:14;;;;;;;15.20;4.00;;;;;;;17.05;25.09;100253.31;105890;1258;72899;-77
2023/05/11 10:29:41;;;;;;;9.70;3.60;;;;;;;17.14;25.64;100243.99;108490;1253;60420;-74
2023/05/11 10:32:08;;;;;;;4.70;3.50;;;;;;;17.24;25.41;100239.20;108589;1254;59554;-77
2023/05/11 10:34:35;;;;;;;6.10;3.80;;;;;;;17.80;24.64;100244.88;105877;1259;75773;-74
2023/05/11 10:37:02;;;;;;;8.90;4.00;;;;;;;18.22;24.13;100240.92;106071;1254;68745;-75
2023/05/11 10:39:29;;;;;;;9.30;3.50;;;;;;;18.73;24.21;100238.55;106084;1255;71980;-76
2023/05/11 10:42:28;;;;;;;15.80;4.30;;;;;;;19.45;22.53;100246.05;106097;1256;62152;-76
2023/05/11 10:45:33;;;;;;;5.10;3.10;;;;;;;19.20;23.78;100236.30;106059;1253;62743;-77
2023/05/11 10:48:25;;;;;;;10.60;3.60;;;;;;;19.43;22.84;100234.48;105865;1257;75181;-76
2023/05/11 10:51:32;;;;;;;12.20;3.50;;;;;;;19.30;22.62;100229.23;105992;1254;68535;-76
2023/05/11 10:54:06;;;;;;;9.20;2.60;;;;;;;18.69;22.89;100229.57;106007;1256;72032;-76
2023/05/11 10:56:43;;;;;;;11.90;7.90;;;;;;;18.30;22.59;100227.63;105949;1257;61999;-75
2023/05/11 10:59:33;;;;;;;4.20;3.10;;;;;;;18.77;22.40;100228.95;105898;1253;62082;-76
2023/05/11 11:02:01;;;;;;;13.10;8.70;;;;;;;17.76;22.80;100229.16;105563;1259;76017;-75
2023/05/11 11:04:45;;;;;;;15.70;4.10;;;;;;;17.62;22.83;100226.55;105527;1261;69852;-77
2023/05/11 11:07:16;;;;;;;3.80;3.00;;;;;;;17.34;22.66;100221.88;105569;1264;72120;-77
2023/05/11 11:09:51;;;;;;;4.90;2.80;;;;;;;17.23;23.15;100218.21;105650;1259;62052;-75
2023/05/11 11:12:19;;;;;;;4.60;2.90;;;;;;;17.30;23.72;100217.84;105663;1261;62162;-75
2023/05/11 11:15:00;;;;;;;5.40;3.60;;;;;;;17.39;23.47;100222.34;105617;1264;75425;-75
2023/05/11 11:17:30;;;;;;;7.80;3.50;;;;;;;17.35;23.88;100220.85;105624;1263;69673;-75